Time;durP1;ratioP1;P1;durP2;ratioP2;P2;SDS_P1;SDS_P2;PMS_P1;PMS_P2;Temp;Humidity;BMP_temperature;BMP_pressure;BME280_temperature;BME280_humidity;BME280_pressure;Samples;Min_cycle;Max_cycle;Signal;HPM_P1;HPM_P2
2023/12/16 00:01:21;;;;;;;13.77;7.50;;;8.00;1.00;;;;;;4992701;28;20652;-70
2023/12/16 00:03:47;;;;;;;11.73;7.40;;;8.00;1.00;;;;;;4993015;28;20173;-71
2023/12/16 00:06:12;;;;;;;15.50;8.00;;;7.90;99.90;;;;;;4974957;28;20685;-71
2023/12/16 00:08:38;;;;;;;11.37;7.13;;;8.00;99.90;;;;;;4992064;28;20185;-69
2023/12/16 00:11:03;;;;;;;14.07;7.30;;;8.00;99.90;;;;;;4992385;28;20205;-71
2023/12/16 00:13:29;;;;;;;15.50;7.80;;;8.00;99.90;;;;;;4992424;28;20177;-72
2023/12/16 00:15:55;;;;;;;10.13;7.23;;;8.00;99.90;;;;;;4991928;28;20201;-71
2023/12/16 00:18:20;;;;;;;13.07;8.47;;;7.90;99.90;;;;;;4992355;28;20251;-69
2023/12/16 00:20:46;;;;;;;17.07;8.07;;;7.90;99.90;;;;;;4992290;28;20177;-70
2023/12/16 00:23:12;;;;;;;15.33;7.50;;;7.90;99.90;;;;;;4992176;28;20177;-70
2023/12/16 00:25:37;;;;;;;11.97;7.33;;;8.00;99.90;;;;;;4992082;28;20235;-70
2023/12/16 00:28:03;;;;;;;13.30;7.77;;;8.00;99.90;;;;;;4992255;28;20204;-70
2023/12/16 00:30:29;;;;;;;13.17;7.20;;;8.00;99.90;;;;;;4991878;28;20250;-70
2023/12/16 00:32:54;;;;;;;17.37;7.83;;;8.00;99.90;;;;;;4991777;28;20184;-70
2023/12/16 00:35:20;;;;;;;15.33;7.20;;;7.90;99.90;;;;;;4992375;28;20192;-70
2023/12/16 00:37:46;;;;;;;11.17;7.30;;;7.90;99.90;;;;;;4992076;28;20194;-70
2023/12/16 00:40:12;;;;;;;17.23;7.53;;;8.00;99.90;;;;;;4991959;28;20191;-70
2023/12/16 00:42:37;;;;;;;13.70;7.23;;;8.00;99.90;;;;;;4991686;28;20243;-70
2023/12/16 00:45:04;;;;;;;10.13;7.27;;;7.90;99.90;;;;;;4992238;28;20181;-70
2023/12/16 00:47:29;;;;;;;11.10;7.27;;;7.90;99.90;;;;;;4992013;28;20536;-70
2023/12/16 00:49:56;;;;;;;13.03;7.70;;;7.90;99.90;;;;;;4991883;28;20196;-70
2023/12/16 00:52:21;;;;;;;11.47;6.47;;;7.90;99.90;;;;;;4991821;28;20227;-70
2023/12/16 00:54:47;;;;;;;14.30;7.00;;;7.90;99.90;;;;;;4991574;28;20177;-70
2023/12/16 00:57:13;;;;;;;17.40;8.07;;;7.90;99.90;;;;;;4991698;28;20195;-70
2023/12/16 00:59:38;;;;;;;16.83;6.83;;;7.90;99.90;;;;;;4991400;28;20189;-70
2023/12/16 01:02:04;;;;;;;12.97;6.97;;;7.90;99.90;;;;;;4991867;28;20191;-70
2023/12/16 01:04:30;;;;;;;14.40;7.27;;;7.90;99.90;;;;;;4991457;28;20215;-69
2023/12/16 01:06:55;;;;;;;13.17;7.23;;;7.80;99.90;;;;;;4993120;28;20637;-70
2023/12/16 01:09:21;;;;;;;15.37;7.20;;;7.90;99.90;;;;;;4995684;28;20708;-70
2023/12/16 01:11:47;;;;;;;11.23;7.43;;;7.90;99.90;;;;;;4995435;28;20184;-70
2023/12/16 01:14:13;;;;;;;13.07;6.93;;;7.80;99.90;;;;;;4994998;28;20180;-69
2023/12/16 01:16:38;;;;;;;9.83;6.90;;;7.90;99.90;;;;;;4995325;28;20204;-69
2023/12/16 01:19:04;;;;;;;13.63;7.87;;;7.80;99.90;;;;;;4995726;28;20324;-71
2023/12/16 01:21:29;;;;;;;14.67;7.43;;;7.80;99.90;;;;;;4995693;28;20180;-69
2023/12/16 01:23:55;;;;;;;11.87;7.53;;;7.80;99.90;;;;;;4995088;28;20546;-69
2023/12/16 01:26:21;;;;;;;13.47;6.97;;;7.80;99.90;;;;;;4995646;28;20196;-70
2023/12/16 01:28:46;;;;;;;13.13;8.43;;;7.80;99.90;;;;;;4995077;28;20259;-70
2023/12/16 01:31:12;;;;;;;16.07;6.93;;;7.80;99.90;;;;;;4995145;28;20669;-69
2023/12/16 01:33:37;;;;;;;16.97;7.70;;;7.80;99.90;;;;;;4995169;28;20177;-69
2023/12/16 01:36:03;;;;;;;17.93;7.23;;;7.80;99.90;;;;;;4995363;28;20196;-69
2023/12/16 01:38:29;;;;;;;12.40;7.93;;;7.80;99.90;;;;;;4995022;28;20517;-70
2023/12/16 01:40:55;;;;;;;17.27;7.27;;;7.90;99.90;;;;;;4995217;28;20221;-69
2023/12/16 01:43:20;;;;;;;10.77;6.90;;;7.80;99.90;;;;;;4994953;28;20189;-69
2023/12/16 01:45:48;;;;;;;13.33;7.17;;;7.80;99.90;;;;;;4994966;28;20196;-69
2023/12/16 01:48:13;;;;;;;12.90;6.50;;;7.80;99.90;;;;;;4995200;28;20205;-69
2023/12/16 01:50:39;;;;;;;13.57;6.97;;;7.80;99.90;;;;;;4977349;28;20228;-69
2023/12/16 01:53:06;;;;;;;13.70;7.17;;;7.80;99.90;;;;;;4994577;28;20208;-69
2023/12/16 01:55:32;;;;;;;14.27;7.07;;;7.80;99.90;;;;;;4993766;28;20656;-69
2023/12/16 01:57:58;;;;;;;10.53;7.33;;;7.80;99.90;;;;;;4994783;28;20181;-69
2023/12/16 02:00:26;;;;;;;8.37;6.93;;;7.80;99.90;;;;;;4994973;28;20436;-69
2023/12/16 02:02:51;;;;;;;13.47;8.07;;;7.80;99.90;;;;;;4994670;28;20606;-69
2023/12/16 02:05:17;;;;;;;12.50;7.50;;;7.80;99.90;;;;;;4994730;28;20205;-69
2023/12/16 02:07:43;;;;;;;15.13;8.30;;;7.70;99.90;;;;;;4995081;28;20192;-69
2023/12/16 02:10:09;;;;;;;12.33;7.13;;;7.70;99.90;;;;;;4994764;28;20249;-69
2023/12/16 02:12:35;;;;;;;14.67;7.77;;;7.70;99.90;;;;;;4994578;28;20177;-69
2023/12/16 02:15:02;;;;;;;20.70;7.73;;;7.80;99.90;;;;;;4994693;28;20181;-69
2023/12/16 02:17:28;;;;;;;13.87;7.47;;;7.80;99.90;;;;;;4994601;28;20191;-69
2023/12/16 02:19:54;;;;;;;10.83;7.10;;;7.80;99.90;;;;;;4993511;28;20271;-70
2023/12/16 02:22:21;;;;;;;21.47;7.93;;;7.80;99.90;;;;;;4994156;28;20511;-70
2023/12/16 02:24:48;;;;;;;18.17;7.23;;;7.70;99.90;;;;;;4994072;28;20189;-70
2023/12/16 02:27:14;;;;;;;15.33;7.43;;;7.70;99.90;;;;;;4994549;28;20243;-69
2023/12/16 02:29:39;;;;;;;14.23;7.20;;;7.70;99.90;;;;;;4994227;28;20284;-69
2023/12/16 02:32:06;;;;;;;15.37;7.73;;;7.70;99.90;;;;;;4994261;28;20623;-70
2023/12/16 02:34:31;;;;;;;13.47;7.57;;;7.70;99.90;;;;;;4993830;28;20681;-69
2023/12/16 02:36:57;;;;;;;15.13;7.30;;;7.80;99.90;;;;;;4994063;28;20223;-69
2023/12/16 02:39:23;;;;;;;12.53;7.03;;;7.80;99.90;;;;;;4994334;28;20507;-69
2023/12/16 02:41:48;;;;;;;16.00;7.30;;;7.80;99.90;;;;;;4976517;28;20180;-69
2023/12/16 02:44:14;;;;;;;11.63;7.00;;;7.80;99.90;;;;;;4993983;28;20173;-68
2023/12/16 02:46:39;;;;;;;11.27;7.13;;;7.80;99.90;;;;;;4994117;28;20208;-69
2023/12/16 02:49:05;;;;;;;16.07;7.70;;;7.80;99.90;;;;;;4993903;28;20169;-69
2023/12/16 02:51:30;;;;;;;18.47;7.60;;;7.70;99.90;;;;;;4976260;28;20585;-69
2023/12/16 02:53:56;;;;;;;17.07;8.10;;;7.80;99.90;;;;;;4993503;28;20183;-71
2023/12/16 02:56:22;;;;;;;17.50;7.87;;;7.70;99.90;;;;;;4993674;28;20203;-69
2023/12/16 02:58:49;;;;;;;12.47;8.17;;;7.70;99.90;;;;;;4994125;28;20198;-69
2023/12/16 03:01:16;;;;;;;13.17;7.17;;;7.70;99.90;;;;;;4993933;28;20172;-69
2023/12/16 03:03:41;;;;;;;12.93;7.63;;;7.70;99.90;;;;;;4993087;28;20188;-69
2023/12/16 03:06:08;;;;;;;16.43;8.10;;;7.70;99.90;;;;;;4993637;28;20555;-69
2023/12/16 03:08:37;;;;;;;14.90;8.00;;;7.70;99.90;;;;;;4993378;28;20180;-69
2023/12/16 03:11:03;;;;;;;12.77;8.73;;;7.70;99.90;;;;;;4974078;28;20566;-69
2023/12/16 03:13:30;;;;;;;19.40;10.23;;;7.70;99.90;;;;;;4973871;28;20232;-69
2023/12/16 03:15:55;;;;;;;22.00;10.53;;;7.70;99.90;;;;;;4974013;28;20193;-69
2023/12/16 03:18:21;;;;;;;20.63;14.03;;;7.70;99.90;;;;;;4984000;28;20648;-69
2023/12/16 03:20:49;;;;;;;19.57;8.83;;;7.70;99.90;;;;;;4993498;28;20184;-69
2023/12/16 03:23:15;;;;;;;19.20;8.67;;;7.70;99.90;;;;;;4993441;28;20260;-69
2023/12/16 03:25:43;;;;;;;14.93;10.30;;;7.60;99.90;;;;;;4993445;28;20287;-69
2023/12/16 03:28:12;;;;;;;12.83;8.10;;;7.70;99.90;;;;;;4993776;28;20176;-69
2023/12/16 03:30:41;;;;;;;9.83;7.87;;;7.70;99.90;;;;;;4993027;28;20234;-69
2023/12/16 03:33:07;;;;;;;14.57;7.33;;;7.70;97.00;;;;;;4993314;28;20223;-69
2023/12/16 03:35:33;;;;;;;15.17;7.73;;;7.70;95.70;;;;;;4993170;28;20192;-69
2023/12/16 03:38:00;;;;;;;12.13;7.23;;;7.70;65.00;;;;;;4993280;28;20181;-69
2023/12/16 03:40:26;;;;;;;13.97;7.07;;;7.70;29.40;;;;;;4993173;28;20184;-69
2023/12/16 03:42:52;;;;;;;12.03;6.87;;;7.60;8.20;;;;;;4992946;28;20598;-69
2023/12/16 03:45:17;;;;;;;13.00;6.83;;;7.60;1.00;;;;;;4992962;28;20208;-69
2023/12/16 03:47:43;;;;;;;16.03;7.33;;;7.60;1.00;;;;;;4993020;28;20181;-69
2023/12/16 03:50:09;;;;;;;15.33;7.07;;;7.70;2.10;;;;;;4992971;28;20546;-69
2023/12/16 03:52:34;;;;;;;21.77;7.80;;;7.70;4.80;;;;;;4992645;28;20264;-69
2023/12/16 03:55:00;;;;;;;15.27;8.07;;;7.70;7.70;;;;;;4992975;28;20633;-70
2023/12/16 03:57:25;;;;;;;15.50;7.90;;;7.70;1.00;;;;;;4992653;28;20180;-70
2023/12/16 03:59:51;;;;;;;15.10;8.27;;;7.60;1.00;;;;;;4992824;28;20169;-69
2023/12/16 04:02:17;;;;;;;17.57;7.57;;;7.70;13.60;;;;;;4992964;28;20756;-69
2023/12/16 04:04:42;;;;;;;17.27;6.83;;;7.70;7.80;;;;;;4992512;28;20177;-69
2023/12/16 04:07:09;;;;;;;8.50;6.83;;;7.70;1.00;;;;;;4992782;28;20197;-69
2023/12/16 04:09:35;;;;;;;12.77;6.73;;;7.60;1.00;;;;;;4992589;28;20234;-69
2023/12/16 04:12:00;;;;;;;22.57;7.10;;;7.70;1.00;;;;;;4992841;28;20173;-70
2023/12/16 04:14:26;;;;;;;10.03;6.40;;;7.60;1.00;;;;;;4992270;28;20189;-69
2023/12/16 04:16:52;;;;;;;11.07;6.37;;;7.70;1.00;;;;;;4992440;28;20584;-70
2023/12/16 04:19:18;;;;;;;12.17;6.60;;;7.70;1.00;;;;;;4992737;28;20633;-69
2023/12/16 04:21:43;;;;;;;9.20;6.13;;;7.70;1.00;;;;;;4992534;28;20176;-69
2023/12/16 04:24:09;;;;;;;15.53;6.87;;;7.60;1.00;;;;;;4992631;28;20307;-69
2023/12/16 04:26:35;;;;;;;9.17;6.17;;;7.70;1.00;;;;;;4992041;28;20200;-69
2023/12/16 04:29:00;;;;;;;10.77;7.07;;;7.70;1.00;;;;;;4992467;28;20235;-69
2023/12/16 04:31:26;;;;;;;13.20;6.80;;;7.70;1.00;;;;;;4992329;28;20670;-69
2023/12/16 04:33:54;;;;;;;14.57;6.70;;;7.70;1.00;;;;;;4992115;28;20188;-69
2023/12/16 04:36:20;;;;;;;15.43;6.97;;;7.70;1.00;;;;;;4992391;28;20682;-69
2023/12/16 04:38:45;;;;;;;12.07;6.20;;;7.60;1.00;;;;;;4992188;28;20267;-69
2023/12/16 04:41:12;;;;;;;14.37;7.23;;;7.70;1.00;;;;;;4991523;28;20173;-69
2023/12/16 04:43:39;;;;;;;14.77;7.20;;;7.70;1.00;;;;;;4992060;28;20176;-69
2023/12/16 04:46:05;;;;;;;15.00;6.80;;;7.70;1.00;;;;;;4992320;28;20200;-69
2023/12/16 04:48:31;;;;;;;11.63;6.27;;;7.70;1.00;;;;;;4992233;28;20671;-69
2023/12/16 04:50:56;;;;;;;11.57;6.60;;;7.70;1.00;;;;;;4992866;28;20215;-69
2023/12/16 04:53:22;;;;;;;17.37;7.03;;;7.70;1.00;;;;;;4991865;28;20637;-69
2023/12/16 04:55:47;;;;;;;16.67;6.90;;;7.70;1.00;;;;;;4991985;28;20196;-69
2023/12/16 04:58:13;;;;;;;8.63;5.97;;;7.70;1.00;;;;;;4992154;28;20230;-69
2023/12/16 05:00:39;;;;;;;11.00;5.80;;;7.70;1.00;;;;;;4991977;28;20255;-69
2023/12/16 05:03:05;;;;;;;12.13;6.50;;;7.70;1.00;;;;;;4991995;28;20652;-70
2023/12/16 05:05:30;;;;;;;10.10;6.07;;;7.70;1.00;;;;;;4991791;28;20246;-69
2023/12/16 05:07:56;;;;;;;9.80;6.17;;;7.70;1.00;;;;;;4992141;28;20727;-69
2023/12/16 05:10:22;;;;;;;11.37;5.87;;;7.70;1.00;;;;;;4992093;28;20684;-69
2023/12/16 05:12:47;;;;;;;9.97;5.80;;;7.70;1.00;;;;;;4991331;28;20181;-69
2023/12/16 05:15:13;;;;;;;9.33;6.07;;;7.70;1.00;;;;;;4991671;28;20197;-69
2023/12/16 05:17:40;;;;;;;11.03;6.00;;;7.60;1.00;;;;;;4991948;28;20212;-69
2023/12/16 05:20:06;;;;;;;12.17;5.90;;;7.60;1.00;;;;;;4992980;28;20235;-69
2023/12/16 05:22:33;;;;;;;11.17;6.23;;;7.70;1.00;;;;;;4992880;28;20232;-69
2023/12/16 05:25:00;;;;;;;11.83;6.07;;;7.70;1.00;;;;;;4992975;28;20173;-69
2023/12/16 05:27:26;;;;;;;10.50;5.77;;;7.70;1.00;;;;;;4992907;28;20181;-70
2023/12/16 05:29:52;;;;;;;10.37;5.70;;;7.70;1.00;;;;;;4992381;28;20223;-70
2023/12/16 05:32:18;;;;;;;11.93;6.00;;;7.70;1.00;;;;;;4991689;28;20192;-69
2023/12/16 05:34:43;;;;;;;16.10;6.40;;;7.70;1.00;;;;;;4990745;28;20272;-70
2023/12/16 05:37:09;;;;;;;13.63;6.03;;;7.70;1.00;;;;;;4990941;28;20189;-70
2023/12/16 05:39:35;;;;;;;13.80;6.17;;;7.70;1.00;;;;;;4991187;28;20169;-70
2023/12/16 05:42:00;;;;;;;18.73;6.37;;;7.70;1.00;;;;;;4991859;28;20248;-69
2023/12/16 05:44:26;;;;;;;9.20;5.70;;;7.70;1.00;;;;;;4991458;28;20273;-69
2023/12/16 05:46:52;;;;;;;9.20;5.50;;;7.70;1.00;;;;;;4991820;28;20205;-69
2023/12/16 05:49:17;;;;;;;11.00;5.10;;;7.70;1.00;;;;;;4991389;28;20675;-69
2023/12/16 05:51:43;;;;;;;12.97;6.17;;;7.70;1.00;;;;;;4991445;28;20295;-69
2023/12/16 05:54:09;;;;;;;12.77;5.60;;;7.70;1.00;;;;;;4994560;28;20267;-69
2023/12/16 05:56:34;;;;;;;12.70;5.30;;;7.80;1.00;;;;;;4977330;28;20193;-69
2023/12/16 05:59:00;;;;;;;11.30;5.93;;;7.70;1.00;;;;;;4995416;28;20311;-69
2023/12/16 06:01:26;;;;;;;13.77;5.93;;;7.80;1.00;;;;;;4995106;28;20177;-69
2023/12/16 06:03:52;;;;;;;9.70;5.87;;;7.70;1.00;;;;;;4994512;28;20220;-69
2023/12/16 06:06:18;;;;;;;9.03;6.70;;;7.70;1.00;;;;;;4994718;28;20293;-69
2023/12/16 06:08:44;;;;;;;10.03;5.67;;;7.70;1.00;;;;;;4994870;28;20208;-69
2023/12/16 06:11:13;;;;;;;7.93;5.27;;;7.80;1.00;;;;;;4995076;28;20215;-69
2023/12/16 06:13:39;;;;;;;10.40;5.83;;;7.80;1.00;;;;;;4995327;28;20253;-69
2023/12/16 06:16:08;;;;;;;8.27;5.13;;;7.80;1.00;;;;;;4994196;28;20724;-69
2023/12/16 06:18:34;;;;;;;9.43;5.30;;;7.80;1.00;;;;;;4994535;28;20176;-69
2023/12/16 06:21:00;;;;;;;6.13;5.00;;;7.80;1.00;;;;;;4994705;28;20194;-69
2023/12/16 06:23:26;;;;;;;15.73;5.90;;;7.80;1.00;;;;;;4994658;28;20741;-69
2023/12/16 06:25:52;;;;;;;9.53;5.40;;;7.80;1.00;;;;;;4994567;28;20204;-70
2023/12/16 06:28:18;;;;;;;13.53;5.67;;;7.80;1.00;;;;;;4994748;28;20683;-69
2023/12/16 06:30:44;;;;;;;8.57;5.70;;;7.80;1.00;;;;;;4993956;28;20205;-69
2023/12/16 06:33:09;;;;;;;9.43;5.33;;;7.80;1.00;;;;;;4994305;28;20184;-69
2023/12/16 06:35:35;;;;;;;6.90;5.80;;;7.80;1.00;;;;;;4994226;28;20539;-69
2023/12/16 06:38:01;;;;;;;9.97;5.57;;;7.80;1.00;;;;;;4994682;28;20203;-69
2023/12/16 06:40:31;;;;;;;7.77;5.40;;;7.80;1.00;;;;;;4994859;28;20177;-69
2023/12/16 06:42:57;;;;;;;8.53;5.47;;;7.80;1.00;;;;;;4994499;28;20665;-69
2023/12/16 06:45:23;;;;;;;8.10;5.60;;;7.80;1.00;;;;;;4994238;28;20240;-69
2023/12/16 06:47:48;;;;;;;13.00;5.60;;;7.80;1.00;;;;;;4994537;28;20181;-69
2023/12/16 06:50:14;;;;;;;9.80;5.37;;;7.80;1.00;;;;;;4994701;28;20227;-69
2023/12/16 06:52:40;;;;;;;9.77;5.87;;;7.90;1.00;;;;;;4994239;28;20220;-69
2023/12/16 06:55:06;;;;;;;9.77;5.50;;;7.80;1.00;;;;;;4994555;28;20543;-70
2023/12/16 06:57:32;;;;;;;14.07;5.90;;;7.80;1.00;;;;;;4993951;28;20208;-69
2023/12/16 06:59:57;;;;;;;6.90;5.03;;;7.80;1.00;;;;;;4993977;28;20173;-69
2023/12/16 07:02:24;;;;;;;6.83;5.20;;;7.80;1.00;;;;;;4993908;28;20191;-70
2023/12/16 07:04:50;;;;;;;11.10;5.33;;;7.80;1.00;;;;;;4992965;28;20695;-69
2023/12/16 07:07:15;;;;;;;9.43;5.23;;;7.80;1.00;;;;;;4993726;28;20281;-70
2023/12/16 07:09:41;;;;;;;12.40;6.03;;;7.80;1.00;;;;;;4993093;28;20588;-69
2023/12/16 07:12:07;;;;;;;10.53;5.33;;;7.80;1.00;;;;;;4994175;28;20231;-69
2023/12/16 07:14:33;;;;;;;8.73;5.60;;;7.80;1.00;;;;;;4993972;28;20177;-69
2023/12/16 07:17:00;;;;;;;9.20;5.83;;;7.70;1.00;;;;;;4994466;28;20299;-69
2023/12/16 07:19:27;;;;;;;8.40;5.77;;;7.70;1.00;;;;;;4994151;28;20227;-69
2023/12/16 07:21:53;;;;;;;13.23;6.03;;;7.70;1.00;;;;;;4993828;28;20196;-70
2023/12/16 07:24:19;;;;;;;10.07;5.73;;;7.70;1.00;;;;;;4989138;28;20212;-70
2023/12/16 07:26:44;;;;;;;10.87;5.33;;;7.70;1.00;;;;;;4993118;28;20598;-69
2023/12/16 07:29:10;;;;;;;9.07;5.23;;;7.70;1.00;;;;;;4993318;28;20526;-69
2023/12/16 07:31:36;;;;;;;10.27;5.77;;;7.70;1.00;;;;;;4993016;28;20205;-69
2023/12/16 07:34:01;;;;;;;9.60;5.93;;;7.60;1.00;;;;;;4992863;28;20188;-69
2023/12/16 07:36:27;;;;;;;11.57;6.17;;;7.60;1.00;;;;;;4993185;28;20726;-69
2023/12/16 07:38:55;;;;;;;12.97;6.17;;;7.60;1.00;;;;;;5001979;28;20667;-70
2023/12/16 07:41:21;;;;;;;9.00;5.87;;;7.50;1.00;;;;;;5012730;28;20627;-69
2023/12/16 07:43:47;;;;;;;8.97;6.40;;;7.40;1.00;;;;;;5012155;28;20555;-70
2023/12/16 07:46:12;;;;;;;11.60;6.30;;;7.30;1.00;;;;;;5008883;28;20220;-70
2023/12/16 07:48:38;;;;;;;9.43;5.83;;;7.20;1.00;;;;;;4992838;28;20177;-70
2023/12/16 07:51:04;;;;;;;7.43;5.83;;;7.20;1.00;;;;;;4992064;28;20243;-70
2023/12/16 07:53:29;;;;;;;9.63;5.37;;;7.10;1.00;;;;;;4992472;28;20181;-70
2023/12/16 07:55:55;;;;;;;10.37;5.57;;;7.10;1.00;;;;;;4992632;28;20200;-70
2023/12/16 07:58:21;;;;;;;11.53;5.80;;;7.10;13.30;;;;;;4992752;28;20173;-70
2023/12/16 08:00:48;;;;;;;12.37;5.73;;;7.10;36.60;;;;;;4992110;28;20191;-70
2023/12/16 08:03:13;;;;;;;11.93;5.27;;;7.10;73.80;;;;;;4992401;28;20552;-70
2023/12/16 08:05:42;;;;;;;11.00;5.70;;;7.10;94.40;;;;;;4992548;28;20283;-70
2023/12/16 08:08:08;;;;;;;11.90;5.67;;;7.10;99.90;;;;;;4992175;28;20181;-70
2023/12/16 08:10:34;;;;;;;11.03;5.80;;;7.10;99.90;;;;;;4992257;28;20219;-70
2023/12/16 08:12:59;;;;;;;16.00;5.53;;;7.10;99.90;;;;;;4992238;28;20201;-70
2023/12/16 08:15:25;;;;;;;10.03;5.30;;;7.00;99.90;;;;;;4992968;28;20212;-70
2023/12/16 08:17:50;;;;;;;11.00;5.87;;;7.10;99.90;;;;;;4991348;28;20202;-70
2023/12/16 08:20:16;;;;;;;16.10;6.10;;;7.10;99.90;;;;;;4992757;28;20268;-69
2023/12/16 08:22:42;;;;;;;12.27;5.80;;;7.10;99.90;;;;;;4992193;28;20264;-70
2023/12/16 08:25:08;;;;;;;12.00;5.70;;;7.00;99.90;;;;;;4992416;28;20207;-71
2023/12/16 08:27:33;;;;;;;12.33;6.30;;;7.10;99.90;;;;;;4975293;28;20185;-70
2023/12/16 08:29:59;;;;;;;12.80;6.23;;;7.10;99.90;;;;;;4992194;28;20288;-69
2023/12/16 08:32:25;;;;;;;11.77;6.57;;;7.10;99.90;;;;;;4993103;28;20205;-69
2023/12/16 08:34:50;;;;;;;11.03;6.07;;;7.20;99.90;;;;;;4992408;28;20177;-69
2023/12/16 08:37:16;;;;;;;13.13;6.23;;;7.20;99.90;;;;;;4992381;28;20572;-69
2023/12/16 08:39:41;;;;;;;15.23;6.90;;;7.20;99.90;;;;;;4992373;28;20177;-71
2023/12/16 08:42:07;;;;;;;12.27;6.70;;;7.20;99.90;;;;;;4992643;28;20184;-70
2023/12/16 08:44:32;;;;;;;13.70;6.13;;;7.30;99.90;;;;;;4992017;28;20184;-69
2023/12/16 08:46:58;;;;;;;15.50;6.23;;;7.40;99.90;;;;;;4993104;28;20197;-69
2023/12/16 08:49:23;;;;;;;7.70;5.90;;;7.30;54.00;;;;;;4993586;28;20652;-70
2023/12/16 08:51:52;;;;;;;11.00;6.67;;;7.50;70.60;;;;;;4993237;28;20244;-70
2023/12/16 08:54:17;;;;;;;13.20;6.00;;;7.60;59.40;;;;;;4993430;28;20168;-70
2023/12/16 08:56:43;;;;;;;15.07;6.90;;;7.80;71.00;;;;;;4992749;28;20575;-70
2023/12/16 08:59:09;;;;;;;18.87;6.00;;;8.00;91.00;;;;;;4993627;28;20629;-69
2023/12/16 09:01:34;;;;;;;18.57;5.67;;;8.40;12.10;;;;;;4993113;28;20243;-69
2023/12/16 09:04:00;;;;;;;10.20;5.50;;;8.80;1.00;;;;;;4993189;28;20184;-70
2023/12/16 09:06:26;;;;;;;12.43;5.50;;;9.30;1.00;;;;;;4994414;28;20251;-70
2023/12/16 09:08:52;;;;;;;10.87;5.03;;;9.80;1.00;;;;;;4993210;28;20235;-70
2023/12/16 09:11:17;;;;;;;10.77;5.20;;;10.30;1.00;;;;;;4993046;28;20238;-69
2023/12/16 09:13:44;;;;;;;8.50;4.67;;;10.40;1.00;;;;;;4991853;28;20267;-70
2023/12/16 09:16:10;;;;;;;12.13;4.83;;;10.80;1.00;;;;;;4991850;28;20208;-69
2023/12/16 09:18:38;;;;;;;13.67;5.10;;;11.10;1.00;;;;;;4992101;28;20177;-70
2023/12/16 09:21:04;;;;;;;9.30;4.57;;;11.10;1.00;;;;;;4991467;28;20196;-69
2023/12/16 09:23:30;;;;;;;7.90;5.07;;;11.00;1.00;;;;;;4991337;28;20181;-69
2023/12/16 09:25:55;;;;;;;12.60;4.93;;;11.20;1.00;;;;;;4991128;28;20298;-70
2023/12/16 09:28:21;;;;;;;15.47;5.13;;;11.40;1.00;;;;;;4993598;28;20176;-70
2023/12/16 09:30:47;;;;;;;10.13;4.83;;;11.50;1.00;;;;;;4995326;28;20219;-70
2023/12/16 09:33:12;;;;;;;13.37;5.90;;;11.40;1.00;;;;;;4995448;28;20184;-70
2023/12/16 09:35:38;;;;;;;13.00;5.93;;;11.30;1.00;;;;;;4995167;28;20192;-70
2023/12/16 09:38:04;;;;;;;13.37;5.80;;;11.00;1.00;;;;;;4995366;28;20212;-70
2023/12/16 09:40:29;;;;;;;10.33;4.80;;;10.80;1.00;;;;;;4995627;28;20564;-70
2023/12/16 09:43:08;;;;;;;9.40;5.50;;;10.50;1.00;;;;;;4994804;28;20177;-70
2023/12/16 09:45:34;;;;;;;14.43;5.43;;;10.30;1.00;;;;;;4995190;28;20631;-70
2023/12/16 09:48:00;;;;;;;13.30;5.10;;;10.10;1.00;;;;;;4995424;28;20193;-70
2023/12/16 09:50:30;;;;;;;14.97;6.00;;;10.00;1.00;;;;;;4994941;28;20783;-69
2023/12/16 09:52:56;;;;;;;14.63;5.50;;;10.00;1.00;;;;;;4994465;28;20187;-69
2023/12/16 09:55:22;;;;;;;10.90;5.23;;;9.90;1.00;;;;;;4994855;28;20602;-68
2023/12/16 09:57:49;;;;;;;10.67;5.93;;;9.70;1.00;;;;;;4994778;28;20234;-69
2023/12/16 10:00:17;;;;;;;9.77;5.13;;;9.70;1.00;;;;;;4995019;28;20177;-69
2023/12/16 10:02:47;;;;;;;10.73;5.57;;;9.70;1.00;;;;;;4994650;28;20568;-69
2023/12/16 10:05:14;;;;;;;11.47;5.60;;;9.70;1.00;;;;;;4994622;28;20224;-69
2023/12/16 10:07:41;;;;;;;11.77;5.20;;;9.70;1.00;;;;;;4994439;28;20630;-69
2023/12/16 10:10:07;;;;;;;10.80;5.13;;;9.80;1.00;;;;;;4994719;28;20228;-69
2023/12/16 10:12:36;;;;;;;8.13;5.20;;;9.90;1.00;;;;;;4994410;28;20235;-71
2023/12/16 10:15:01;;;;;;;9.23;5.00;;;10.00;1.00;;;;;;4994603;28;20200;-69
2023/12/16 10:17:28;;;;;;;10.93;4.43;;;10.00;1.00;;;;;;4994522;28;20661;-69
2023/12/16 10:19:53;;;;;;;7.70;4.73;;;10.10;1.00;;;;;;4994821;28;20231;-69
2023/12/16 10:22:20;;;;;;;8.77;4.90;;;10.20;1.00;;;;;;4994512;28;20267;-69
2023/12/16 10:24:46;;;;;;;10.00;4.70;;;10.20;1.00;;;;;;4994502;28;20605;-70
2023/12/16 10:27:12;;;;;;;10.33;4.90;;;10.30;1.00;;;;;;4994440;28;20189;-69
2023/12/16 10:29:40;;;;;;;9.83;5.20;;;10.30;1.00;;;;;;4994254;28;20315;-69
2023/12/16 10:32:10;;;;;;;13.67;5.57;;;10.40;1.00;;;;;;4994297;28;20173;-69
2023/12/16 10:34:36;;;;;;;11.27;5.13;;;10.50;1.00;;;;;;4993971;28;20169;-69
2023/12/16 10:37:08;;;;;;;8.60;4.90;;;10.50;1.00;;;;;;4993887;28;20227;-69
2023/12/16 10:39:35;;;;;;;12.23;5.37;;;10.60;1.00;;;;;;4993151;28;20176;-70
2023/12/16 10:42:02;;;;;;;9.07;5.00;;;10.70;1.00;;;;;;4994331;28;20239;-69
2023/12/16 10:44:28;;;;;;;17.17;4.97;;;10.60;1.00;;;;;;4993929;28;20181;-69
2023/12/16 10:46:54;;;;;;;11.47;5.67;;;10.70;1.00;;;;;;4994152;28;20197;-69
2023/12/16 10:49:28;;;;;;;13.23;4.73;;;10.70;1.00;;;;;;4994070;28;20184;-69
2023/12/16 10:52:01;;;;;;;12.00;5.40;;;10.80;1.00;;;;;;4994111;28;20201;-69
2023/12/16 10:54:32;;;;;;;12.47;4.20;;;10.80;1.00;;;;;;4993758;28;20177;-69
2023/12/16 10:57:11;;;;;;;6.87;4.37;;;11.00;1.00;;;;;;4994161;28;20196;-69
2023/12/16 10:59:43;;;;;;;11.07;5.70;;;11.10;1.00;;;;;;4994114;28;20543;-69
2023/12/16 11:02:22;;;;;;;11.37;5.03;;;11.10;1.00;;;;;;4994189;28;20177;-70
2023/12/16 11:04:54;;;;;;;7.63;4.53;;;11.20;1.00;;;;;;4993794;28;20601;-69
2023/12/16 11:07:22;;;;;;;14.13;5.30;;;11.50;1.00;;;;;;4993888;28;20219;-69
2023/12/16 11:09:48;;;;;;;8.40;4.97;;;11.60;1.00;;;;;;4993699;28;20632;-69
2023/12/16 11:12:15;;;;;;;8.17;4.80;;;11.80;1.00;;;;;;4993582;28;20608;-69
2023/12/16 11:14:41;;;;;;;8.60;5.00;;;11.90;1.00;;;;;;4993491;28;20176;-69
2023/12/16 11:17:18;;;;;;;9.40;4.70;;;12.10;1.00;;;;;;4993369;28;20221;-69
2023/12/16 11:19:59;;;;;;;14.13;5.00;;;12.10;1.00;;;;;;4993776;28;20184;-69
2023/12/16 11:22:25;;;;;;;12.40;4.70;;;12.10;1.00;;;;;;4993519;28;20235;-69
2023/12/16 11:24:52;;;;;;;9.63;4.70;;;11.90;1.00;;;;;;4993468;28;20579;-69
2023/12/16 11:27:20;;;;;;;8.97;4.40;;;11.90;1.00;;;;;;4993504;28;20223;-69
2023/12/16 11:29:46;;;;;;;12.50;4.63;;;12.00;1.00;;;;;;4993347;28;20169;-69
2023/12/16 11:32:11;;;;;;;9.23;4.60;;;12.20;1.00;;;;;;4993113;28;20499;-69
2023/12/16 11:34:50;;;;;;;7.70;4.57;;;12.30;1.00;;;;;;4993339;28;20173;-69
2023/12/16 11:37:34;;;;;;;6.87;4.10;;;12.50;1.00;;;;;;4993144;28;20272;-69
2023/12/16 11:39:59;;;;;;;11.73;4.90;;;12.80;1.00;;;;;;4993388;28;20180;-69
2023/12/16 11:42:43;;;;;;;13.27;4.93;;;13.00;1.00;;;;;;4993299;28;20184;-69
2023/12/16 11:45:09;;;;;;;11.50;4.50;;;13.00;1.00;;;;;;4993409;28;20188;-69
2023/12/16 11:47:35;;;;;;;16.13;4.37;;;12.90;1.00;;;;;;4993011;28;20724;-70
2023/12/16 11:50:00;;;;;;;9.37;4.40;;;12.70;1.00;;;;;;4993077;28;20211;-70
2023/12/16 11:52:27;;;;;;;10.17;4.17;;;12.50;1.00;;;;;;4992895;28;20522;-70
2023/12/16 11:54:54;;;;;;;6.40;4.27;;;12.40;1.00;;;;;;4992572;28;20168;-69
2023/12/16 11:57:24;;;;;;;10.70;4.53;;;12.30;1.00;;;;;;4992947;28;20181;-69
2023/12/16 11:59:51;;;;;;;10.43;4.47;;;12.10;1.00;;;;;;4975259;28;20264;-69
2023/12/16 12:02:18;;;;;;;10.13;4.37;;;12.10;1.00;;;;;;4993026;28;20260;-69
2023/12/16 12:04:43;;;;;;;9.20;4.77;;;12.00;1.00;;;;;;4992635;28;20168;-69
2023/12/16 12:07:09;;;;;;;12.30;4.20;;;11.90;1.00;;;;;;4992634;28;20203;-69
2023/12/16 12:09:35;;;;;;;12.63;4.20;;;11.80;1.00;;;;;;4975195;28;20180;-69
2023/12/16 12:12:02;;;;;;;11.63;4.20;;;11.80;1.00;;;;;;4992357;28;20213;-70
2023/12/16 12:14:27;;;;;;;10.30;4.93;;;11.70;1.00;;;;;;4992446;28;20172;-69
2023/12/16 12:16:53;;;;;;;9.47;5.13;;;11.80;1.00;;;;;;4992259;28;20583;-69
2023/12/16 12:19:19;;;;;;;11.10;4.43;;;11.80;1.00;;;;;;4992614;28;20188;-69
2023/12/16 12:21:44;;;;;;;9.50;4.40;;;11.90;1.00;;;;;;4992458;28;20386;-69
2023/12/16 12:24:10;;;;;;;11.43;4.27;;;11.90;1.00;;;;;;4992374;28;20243;-68
2023/12/16 12:26:36;;;;;;;9.60;4.33;;;11.90;1.00;;;;;;4992550;28;20664;-69
2023/12/16 12:29:05;;;;;;;9.67;3.97;;;11.70;1.00;;;;;;4992610;28;20207;-68
2023/12/16 12:31:40;;;;;;;9.23;4.50;;;11.70;1.00;;;;;;4992131;28;20292;-69
2023/12/16 12:34:06;;;;;;;10.40;4.47;;;11.70;1.00;;;;;;4992037;28;20267;-70
2023/12/16 12:36:32;;;;;;;14.00;5.10;;;11.60;1.00;;;;;;4992181;28;20283;-69
2023/12/16 12:38:58;;;;;;;10.53;4.73;;;11.50;1.00;;;;;;4992107;28;20177;-69
2023/12/16 12:41:23;;;;;;;11.40;4.67;;;11.40;1.00;;;;;;4991814;28;20215;-69
2023/12/16 12:43:49;;;;;;;14.80;5.37;;;11.40;1.00;;;;;;4992022;28;20188;-69
2023/12/16 12:46:18;;;;;;;12.27;4.70;;;11.40;1.00;;;;;;4992124;28;20228;-69
2023/12/16 12:48:57;;;;;;;14.20;5.67;;;11.40;1.00;;;;;;4991824;28;20184;-69